Time;durP1;ratioP1;P1;durP2;ratioP2;P2;SDS_P1;SDS_P2;PMS_P1;PMS_P2;Temp;Humidity;BMP_temperature;BMP_pressure;BME280_temperature;BME280_humidity;BME280_pressure;Samples;Min_cycle;Max_cycle;Signal;HPM_P1;HPM_P2
2024/01/06 00:02:20;;;;;;;64.20;22.15;;;20.30;46.70;;;;;;8322777;28;20503;-44
2024/01/06 00:06:21;;;;;;;58.80;20.02;;;20.30;46.50;;;;;;8320574;28;20555;-45
2024/01/06 00:10:22;;;;;;;58.10;19.70;;;20.30;46.70;;;;;;8320828;28;20058;-45
2024/01/06 00:14:22;;;;;;;76.00;23.02;;;20.30;47.00;;;;;;8322720;28;20550;-45
2024/01/06 00:18:23;;;;;;;60.50;20.92;;;20.40;46.70;;;;;;8320885;28;20029;-45
2024/01/06 00:22:24;;;;;;;59.47;21.40;;;20.40;46.70;;;;;;8322870;28;20075;-45
2024/01/06 00:26:24;;;;;;;58.97;21.08;;;20.40;47.40;;;;;;8322599;28;20369;-45
2024/01/06 00:30:25;;;;;;;56.13;19.75;;;20.30;48.40;;;;;;8320944;28;20095;-45
2024/01/06 00:34:26;;;;;;;63.20;20.83;;;20.20;49.30;;;;;;8322607;28;20033;-44
2024/01/06 00:38:26;;;;;;;60.33;19.48;;;20.10;49.10;;;;;;8322397;28;20950;-46
2024/01/06 00:42:27;;;;;;;50.33;19.98;;;20.20;48.90;;;;;;8321006;28;20037;-45
2024/01/06 00:46:28;;;;;;;64.10;21.00;;;20.30;48.90;;;;;;8322466;28;20026;-44
2024/01/06 00:50:28;;;;;;;47.15;18.30;;;20.30;48.20;;;;;;8321666;28;20407;-43
2024/01/06 00:54:29;;;;;;;51.30;17.95;;;20.30;48.00;;;;;;8321855;28;20037;-45
2024/01/06 00:58:30;;;;;;;51.85;16.85;;;20.30;48.10;;;;;;8321560;28;20041;-45
2024/01/06 01:02:31;;;;;;;51.00;18.45;;;20.30;47.50;;;;;;8321612;28;20044;-44
2024/01/06 01:06:31;;;;;;;56.08;17.95;;;20.40;47.40;;;;;;8321337;28;20022;-44
2024/01/06 01:10:32;;;;;;;53.28;17.85;;;20.30;47.30;;;;;;8321835;28;20040;-46
2024/01/06 01:14:33;;;;;;;46.55;16.90;;;20.40;47.30;;;;;;8321847;28;20124;-45
2024/01/06 01:18:33;;;;;;;50.67;17.25;;;20.40;47.00;;;;;;8319685;28;20519;-45
2024/01/06 01:22:34;;;;;;;47.90;16.50;;;20.40;46.90;;;;;;8327262;28;20017;-45
2024/01/06 01:26:36;;;;;;;45.67;14.98;;;20.40;46.70;;;;;;8327677;28;20091;-46
2024/01/06 01:30:36;;;;;;;46.15;15.15;;;20.40;46.60;;;;;;8327255;28;20380;-46
2024/01/06 01:34:37;;;;;;;47.05;16.05;;;20.40;46.50;;;;;;8326030;28;20041;-45
2024/01/06 01:38:38;;;;;;;40.03;15.07;;;20.40;46.90;;;;;;8327444;28;20124;-45
2024/01/06 01:42:38;;;;;;;38.08;15.27;;;20.20;47.80;;;;;;8326798;28;20045;-44
2024/01/06 01:46:39;;;;;;;37.17;13.52;;;20.10;47.90;;;;;;8327124;28;20029;-44
2024/01/06 01:50:40;;;;;;;43.05;13.65;;;20.20;47.70;;;;;;8325461;28;20505;-44
2024/01/06 01:54:42;;;;;;;37.58;14.13;;;20.20;47.50;;;;;;8326642;28;20371;-44
2024/01/06 01:58:43;;;;;;;35.05;12.70;;;20.20;47.10;;;;;;8326707;28;20021;-45
2024/01/06 02:02:44;;;;;;;32.60;13.23;;;20.30;46.80;;;;;;8323992;28;20037;-43
2024/01/06 02:06:45;;;;;;;35.72;12.95;;;20.30;46.70;;;;;;8326582;28;20025;-44
2024/01/06 02:10:46;;;;;;;39.40;12.88;;;20.30;46.90;;;;;;8326147;28;20045;-44
2024/01/06 02:14:46;;;;;;;35.40;13.52;;;20.30;46.80;;;;;;8307729;28;20392;-44
2024/01/06 02:18:47;;;;;;;44.10;13.23;;;20.30;46.70;;;;;;8325633;28;20410;-45
2024/01/06 02:22:48;;;;;;;38.00;13.60;;;20.30;46.60;;;;;;8325212;28;20104;-43
2024/01/06 02:26:49;;;;;;;43.60;13.95;;;20.30;47.20;;;;;;8324705;28;20096;-43
2024/01/06 02:30:50;;;;;;;34.80;12.38;;;20.40;46.60;;;;;;8325355;28;20032;-45
2024/01/06 02:34:50;;;;;;;47.67;12.82;;;20.30;47.10;;;;;;8324444;28;20045;-44
2024/01/06 02:38:51;;;;;;;28.10;11.07;;;20.10;47.80;;;;;;8324399;28;20499;-43
2024/01/06 02:42:52;;;;;;;34.60;11.75;;;20.10;48.00;;;;;;8324160;28;20081;-44
2024/01/06 02:46:54;;;;;;;34.97;11.30;;;20.10;47.60;;;;;;8322289;28;20049;-45
2024/01/06 02:50:54;;;;;;;29.00;10.50;;;20.20;47.10;;;;;;8328486;28;20041;-44
2024/01/06 02:54:55;;;;;;;26.73;10.35;;;20.20;47.00;;;;;;8330358;28;20083;-44
2024/01/06 02:58:56;;;;;;;32.55;10.80;;;20.30;46.80;;;;;;8303609;28;20038;-45
2024/01/06 03:02:56;;;;;;;27.13;10.80;;;20.30;46.60;;;;;;8309539;28;20080;-44
2024/01/06 03:06:57;;;;;;;26.17;10.10;;;20.30;46.40;;;;;;8330111;28;20045;-44
2024/01/06 03:10:58;;;;;;;21.50;9.23;;;20.20;46.00;;;;;;8329931;28;20037;-44
2024/01/06 03:14:59;;;;;;;;;;;20.20;45.70;;;;;;8330441;28;20163;-44
2024/01/06 03:18:59;;;;;;;19.47;8.53;;;20.20;45.50;;;;;;8329557;28;19913;-44
2024/01/06 03:23:00;;;;;;;27.27;9.70;;;20.20;46.00;;;;;;8329758;28;20056;-43
2024/01/06 03:27:01;;;;;;;25.73;9.43;;;20.00;46.90;;;;;;8329491;28;20064;-45
2024/01/06 03:31:02;;;;;;;24.30;10.50;;;19.90;47.10;;;;;;8329381;28;20056;-44
2024/01/06 03:35:03;;;;;;;28.55;10.70;;;19.90;46.60;;;;;;8329384;28;20034;-44
2024/01/06 03:39:04;;;;;;;29.40;9.95;;;20.00;46.20;;;;;;8328987;28;20053;-44
2024/01/06 03:43:04;;;;;;;24.85;9.32;;;20.00;45.90;;;;;;8329113;28;20475;-45
2024/01/06 03:47:05;;;;;;;20.23;8.82;;;20.00;45.70;;;;;;8329011;28;20419;-45
2024/01/06 03:51:07;;;;;;;18.88;9.00;;;20.10;45.50;;;;;;8328974;28;20061;-44
2024/01/06 03:55:08;;;;;;;18.38;7.97;;;20.00;45.40;;;;;;8328643;28;20037;-43
2024/01/06 03:59:09;;;;;;;22.40;8.95;;;20.00;45.30;;;;;;8328926;28;20061;-43
2024/01/06 04:03:10;;;;;;;18.20;7.75;;;20.00;45.20;;;;;;8328154;28;20037;-43
2024/01/06 04:07:10;;;;;;;24.33;8.15;;;20.00;45.10;;;;;;8328423;28;20045;-43
2024/01/06 04:11:11;;;;;;;17.83;8.10;;;20.00;45.60;;;;;;8328294;28;20048;-43
2024/01/06 04:15:12;;;;;;;17.17;7.57;;;19.80;46.50;;;;;;8328141;28;20029;-44
2024/01/06 04:19:13;;;;;;;19.23;7.90;;;19.80;46.50;;;;;;8326908;28;20033;-43
2024/01/06 04:23:14;;;;;;;;;;;19.80;46.00;;;;;;8328479;28;20036;-43
2024/01/06 04:27:14;;;;;;;20.97;7.33;;;19.90;45.70;;;;;;8328019;28;19909;-43
2024/01/06 04:31:15;;;;;;;16.48;6.75;;;19.90;45.40;;;;;;8328306;28;20029;-43
2024/01/06 04:35:16;;;;;;;15.90;7.43;;;19.90;45.20;;;;;;8327864;28;20040;-43
2024/01/06 04:39:17;;;;;;;17.25;7.85;;;20.00;45.10;;;;;;8327644;28;20037;-43
2024/01/06 04:43:17;;;;;;;17.48;7.15;;;20.00;45.00;;;;;;8328150;28;20040;-43
2024/01/06 04:47:18;;;;;;;17.50;7.68;;;20.00;44.80;;;;;;8326450;28;20064;-43
2024/01/06 04:51:19;;;;;;;22.23;8.00;;;19.90;44.70;;;;;;8327587;28;20045;-44
2024/01/06 04:55:19;;;;;;;16.73;6.95;;;20.00;44.60;;;;;;8328590;28;20646;-43
2024/01/06 04:59:20;;;;;;;19.38;8.15;;;19.90;45.20;;;;;;8334242;28;20120;-43
2024/01/06 05:03:21;;;;;;;18.58;8.27;;;19.70;46.20;;;;;;8333656;28;20404;-44
2024/01/06 05:07:22;;;;;;;18.30;6.70;;;19.70;46.30;;;;;;8333817;28;20387;-42
2024/01/06 05:11:22;;;;;;;15.77;6.75;;;19.70;45.80;;;;;;8333833;28;20418;-42
2024/01/06 05:15:23;;;;;;;15.85;6.40;;;19.80;45.40;;;;;;8332391;28;20065;-42
2024/01/06 05:19:24;;;;;;;16.85;6.13;;;19.80;45.10;;;;;;8333803;28;20045;-42
2024/01/06 05:23:24;;;;;;;20.35;6.53;;;19.80;44.90;;;;;;8332323;28;20033;-42
2024/01/06 05:27:25;;;;;;;20.00;8.10;;;19.80;44.70;;;;;;8333563;28;20053;-43
2024/01/06 05:31:26;;;;;;;17.20;7.80;;;19.80;44.60;;;;;;8331868;28;20109;-42
2024/01/06 05:35:26;;;;;;;16.35;6.63;;;19.90;44.60;;;;;;8332926;28;20548;-43
2024/01/06 05:39:27;;;;;;;18.73;6.25;;;19.90;44.40;;;;;;8332729;28;20044;-42
2024/01/06 05:43:28;;;;;;;15.32;5.78;;;19.90;44.30;;;;;;8331450;28;20375;-43
2024/01/06 05:47:30;;;;;;;17.75;5.80;;;19.90;45.00;;;;;;8331562;28;20027;-43
2024/01/06 05:51:31;;;;;;;15.63;6.15;;;19.70;46.00;;;;;;8332411;28;20387;-42
2024/01/06 05:55:32;;;;;;;16.92;5.90;;;19.60;45.90;;;;;;8332194;28;20034;-42
2024/01/06 05:59:33;;;;;;;13.55;5.90;;;19.70;45.40;;;;;;8332419;28;20040;-42
2024/01/06 06:03:34;;;;;;;12.65;6.57;;;19.80;45.00;;;;;;8331806;28;20387;-42
2024/01/06 06:07:38;;;;;;;15.00;5.82;;;19.80;44.70;;;;;;8330579;28;20064;-42
2024/01/06 06:11:39;;;;;;;11.63;5.35;;;19.80;44.50;;;;;;8331977;28;20059;-42
2024/01/06 06:15:40;;;;;;;10.93;4.85;;;19.80;44.30;;;;;;8331780;28;20475;-42
2024/01/06 06:19:40;;;;;;;11.70;5.13;;;19.90;44.20;;;;;;8331624;28;20044;-42
2024/01/06 06:23:41;;;;;;;12.13;5.10;;;19.90;44.10;;;;;;8330390;28;20406;-42
2024/01/06 06:27:42;;;;;;;16.40;5.30;;;19.90;44.00;;;;;;8331438;28;20072;-43
2024/01/06 06:31:46;;;;;;;11.60;5.45;;;19.90;43.80;;;;;;8331364;28;20033;-42
2024/01/06 06:35:47;;;;;;;10.77;4.90;;;19.90;44.70;;;;;;8331234;28;20037;-42
2024/01/06 06:39:48;;;;;;;9.70;4.63;;;19.80;45.60;;;;;;8330958;28;20048;-42
2024/01/06 06:43:48;;;;;;;13.52;4.93;;;19.80;45.30;;;;;;8331010;28;20040;-44
2024/01/06 06:47:50;;;;;;;9.98;5.00;;;19.80;44.70;;;;;;8330819;28;20395;-42
2024/01/06 06:51:52;;;;;;;10.20;4.88;;;19.90;44.40;;;;;;8330836;28;20029;-42
2024/01/06 06:55:53;;;;;;;10.77;5.22;;;20.00;44.10;;;;;;8330807;28;20044;-42
2024/01/06 06:59:54;;;;;;;11.55;4.78;;;20.00;44.00;;;;;;8330501;28;20113;-42
2024/01/06 07:03:55;;;;;;;11.00;4.80;;;20.00;44.30;;;;;;8329942;28;20045;-42
2024/01/06 07:07:55;;;;;;;10.63;4.95;;;20.00;43.70;;;;;;8328942;28;20055;-42
2024/01/06 07:11:57;;;;;;;9.05;4.22;;;20.00;43.50;;;;;;8330243;28;20093;-42
2024/01/06 07:15:58;;;;;;;9.55;5.18;;;20.10;43.50;;;;;;8330043;28;20092;-42
2024/01/06 07:19:58;;;;;;;8.27;4.20;;;20.10;43.40;;;;;;8328160;28;20033;-42
2024/01/06 07:24:01;;;;;;;8.80;4.25;;;20.00;44.40;;;;;;8329789;28;20087;-42
2024/01/06 07:28:02;;;;;;;8.95;4.05;;;19.70;45.20;;;;;;8329579;28;20112;-44
2024/01/06 07:32:03;;;;;;;10.15;5.00;;;19.80;44.90;;;;;;8329524;28;20475;-45
2024/01/06 07:36:04;;;;;;;;;;;19.90;44.40;;;;;;8328616;28;20025;-44
2024/01/06 07:40:05;;;;;;;8.45;4.10;;;20.00;44.00;;;;;;8329174;28;20003;-44
2024/01/06 07:44:06;;;;;;;8.80;4.18;;;20.00;43.80;;;;;;8329153;28;20041;-43
2024/01/06 07:48:07;;;;;;;9.52;4.05;;;20.00;43.70;;;;;;8327805;28;20086;-45
2024/01/06 07:52:07;;;;;;;9.23;4.78;;;20.00;43.50;;;;;;8329106;28;20039;-43
2024/01/06 07:56:08;;;;;;;8.30;3.60;;;20.00;43.30;;;;;;8327679;28;20064;-44
2024/01/06 08:00:09;;;;;;;8.93;3.83;;;20.10;43.20;;;;;;8328569;28;20091;-45
2024/01/06 08:04:10;;;;;;;7.15;3.80;;;20.10;43.10;;;;;;8328176;28;20037;-46
2024/01/06 08:08:12;;;;;;;6.88;3.92;;;20.10;43.00;;;;;;8328511;28;20131;-45
2024/01/06 08:12:14;;;;;;;9.52;4.05;;;20.00;44.10;;;;;;8328494;28;20029;-45
2024/01/06 08:16:15;;;;;;;7.60;3.28;;;19.80;45.00;;;;;;8328163;28;20033;-45
2024/01/06 08:20:16;;;;;;;5.63;3.30;;;19.80;44.50;;;;;;8326914;28;20030;-44
2024/01/06 08:24:17;;;;;;;7.38;3.38;;;19.90;44.00;;;;;;8328106;28;20045;-43
2024/01/06 08:28:18;;;;;;;6.32;3.58;;;20.00;43.80;;;;;;8328037;28;20264;-43
2024/01/06 08:32:19;;;;;;;7.45;3.60;;;20.00;43.50;;;;;;8327231;28;20056;-45
2024/01/06 08:36:20;;;;;;;8.00;3.75;;;20.00;43.30;;;;;;8327871;28;20025;-44
2024/01/06 08:40:20;;;;;;;6.72;3.45;;;20.00;43.20;;;;;;8327646;28;20083;-42
2024/01/06 08:44:21;;;;;;;8.93;3.70;;;20.00;43.10;;;;;;8326416;28;20430;-42
2024/01/06 08:48:22;;;;;;;6.07;3.30;;;20.10;43.00;;;;;;8327532;28;20030;-42
2024/01/06 08:52:22;;;;;;;6.32;3.55;;;20.10;42.90;;;;;;8326422;28;20731;-42
2024/01/06 08:56:23;;;;;;;7.10;3.05;;;20.00;42.80;;;;;;8327704;28;20510;-42
2024/01/06 09:00:24;;;;;;;4.35;2.92;;;19.90;44.00;;;;;;8327466;28;20037;-42
2024/01/06 09:04:25;;;;;;;7.53;3.25;;;19.70;44.80;;;;;;8326133;28;20026;-43
2024/01/06 09:08:25;;;;;;;6.50;3.22;;;19.80;44.20;;;;;;8325887;28;20061;-42
2024/01/06 09:12:26;;;;;;;6.93;3.42;;;19.90;43.80;;;;;;8327393;28;20121;-42
2024/01/06 09:16:27;;;;;;;6.63;3.10;;;20.00;43.40;;;;;;8327095;28;20028;-42
2024/01/06 09:20:27;;;;;;;7.75;3.15;;;20.00;43.30;;;;;;8327171;28;20045;-44
2024/01/06 09:24:28;;;;;;;7.65;3.72;;;20.00;43.10;;;;;;8327015;28;20121;-43
2024/01/06 09:28:29;;;;;;;7.32;3.33;;;20.10;43.00;;;;;;8326941;28;20040;-42
2024/01/06 09:32:30;;;;;;;6.82;3.10;;;20.10;42.80;;;;;;8327089;28;20037;-42
2024/01/06 09:36:31;;;;;;;;;;;20.10;42.70;;;;;;8327288;28;20069;-42
2024/01/06 09:40:32;;;;;;;6.47;3.00;;;20.10;42.60;;;;;;8326680;28;19940;-42
2024/01/06 09:44:33;;;;;;;;;;;20.10;42.70;;;;;;8333057;28;20034;-43
2024/01/06 09:48:39;;;;;;;6.13;2.80;;;19.90;43.70;;;;;;8332884;28;19931;-43
2024/01/06 09:52:44;;;;;;;6.25;2.60;;;19.80;44.50;;;;;;8332562;28;20166;-43
2024/01/06 09:56:47;;;;;;;5.85;3.28;;;19.80;43.90;;;;;;8332619;28;20034;-43
2024/01/06 10:00:49;;;;;;;5.18;2.40;;;19.90;43.50;;;;;;8332284;28;20555;-43
2024/01/06 10:04:51;;;;;;;6.03;2.67;;;20.00;43.20;;;;;;8331756;28;20105;-43
2024/01/06 10:08:52;;;;;;;4.35;2.50;;;20.00;43.00;;;;;;8331917;28;20140;-43
2024/01/06 10:12:55;;;;;;;6.35;2.78;;;20.00;42.80;;;;;;8332147;28;20104;-43
2024/01/06 10:16:55;;;;;;;5.55;2.53;;;20.10;42.80;;;;;;8331802;28;20038;-42
2024/01/06 10:20:56;;;;;;;4.75;2.80;;;20.10;42.60;;;;;;8330443;28;20499;-43
2024/01/06 10:24:57;;;;;;;4.70;2.70;;;20.10;42.50;;;;;;8331671;28;20083;-43
2024/01/06 10:28:58;;;;;;;4.00;2.30;;;20.10;42.40;;;;;;8331511;28;20120;-43
2024/01/06 10:32:59;;;;;;;;;;;20.10;42.60;;;;;;8331800;28;20064;-44
2024/01/06 10:37:00;;;;;;;5.77;2.57;;;19.90;43.70;;;;;;8331323;28;19909;-43
2024/01/06 10:41:07;;;;;;;4.20;2.38;;;19.80;44.30;;;;;;8331001;28;20068;-43
2024/01/06 10:45:13;;;;;;;4.38;2.60;;;19.90;43.70;;;;;;8330967;28;20036;-43
2024/01/06 10:49:15;;;;;;;4.80;2.50;;;19.90;43.30;;;;;;8330800;28;20123;-45
2024/01/06 10:53:18;;;;;;;4.32;2.55;;;20.00;43.00;;;;;;8329966;28;20048;-43
2024/01/06 10:57:20;;;;;;;4.50;2.35;;;20.00;42.80;;;;;;8330936;28;20029;-44
2024/01/06 11:01:24;;;;;;;6.50;2.97;;;20.00;42.60;;;;;;8329179;28;20055;-42
2024/01/06 11:05:26;;;;;;;3.58;2.15;;;20.00;42.50;;;;;;8312398;28;20029;-42
2024/01/06 11:09:34;;;;;;;4.75;2.50;;;20.00;42.40;;;;;;8330075;28;20141;-42
2024/01/06 11:13:36;;;;;;;3.80;2.30;;;20.00;42.30;;;;;;8345330;28;20038;-42
2024/01/06 11:17:53;;;;;;;4.70;2.47;;;20.10;42.30;;;;;;8329998;28;20033;-42
2024/01/06 11:21:54;;;;;;;5.30;2.42;;;20.00;42.80;;;;;;8329827;28;20084;-42
2024/01/06 11:25:55;;;;;;;4.82;2.67;;;19.80;44.30;;;;;;8329502;28;20065;-43
2024/01/06 11:29:56;;;;;;;;;;;19.70;43.90;;;;;;8328750;28;20041;-42
2024/01/06 11:34:12;;;;;;;4.75;2.40;;;19.80;43.40;;;;;;8311853;28;19905;-42
2024/01/06 11:38:14;;;;;;;4.18;2.17;;;19.90;43.10;;;;;;8296484;28;20037;-42
2024/01/06 11:42:15;;;;;;;4.78;2.20;;;20.00;42.80;;;;;;8296405;28;20468;-42
2024/01/06 11:46:17;;;;;;;5.43;1.90;;;20.00;42.70;;;;;;8296387;28;20392;-43
2024/01/06 11:50:17;;;;;;;2.97;1.90;;;20.00;42.50;;;;;;8296739;28;20038;-42
2024/01/06 11:54:19;;;;;;;2.78;2.03;;;20.00;42.30;;;;;;8304834;28;20049;-42
2024/01/06 11:58:19;;;;;;;4.05;2.28;;;20.00;42.30;;;;;;8327712;28;20034;-42
2024/01/06 12:02:22;;;;;;;4.18;2.00;;;20.00;42.20;;;;;;8328697;28;20026;-42
2024/01/06 12:06:23;;;;;;;4.07;1.90;;;20.00;42.20;;;;;;8328087;28;20457;-42
2024/01/06 12:10:25;;;;;;;4.07;1.83;;;19.90;42.90;;;;;;8328373;28;20079;-42
2024/01/06 12:14:25;;;;;;;3.65;2.00;;;19.70;43.90;;;;;;8328300;28;20060;-42
2024/01/06 12:18:26;;;;;;;3.30;1.90;;;19.70;43.80;;;;;;8328099;28;20069;-42
2024/01/06 12:22:27;;;;;;;2.35;1.63;;;19.80;43.40;;;;;;8327070;28;20045;-43
2024/01/06 12:26:29;;;;;;;3.95;1.83;;;19.90;43.00;;;;;;8327821;28;20025;-43
2024/01/06 12:30:31;;;;;;;3.35;1.73;;;19.90;42.70;;;;;;8326601;28;20410;-43
2024/01/06 12:34:32;;;;;;;3.70;2.22;;;20.00;42.50;;;;;;8327887;28;20037;-42
2024/01/06 12:38:33;;;;;;;2.97;1.58;;;20.00;42.50;;;;;;8327790;28;20092;-43
2024/01/06 12:42:34;;;;;;;3.53;1.98;;;20.00;42.20;;;;;;8326427;28;20033;-42
2024/01/06 12:46:35;;;;;;;3.08;1.95;;;20.00;42.10;;;;;;8327813;28;20064;-42
2024/01/06 12:50:36;;;;;;;3.63;1.75;;;20.00;42.00;;;;;;8327797;28;20033;-42
2024/01/06 12:54:36;;;;;;;3.83;1.85;;;20.00;42.00;;;;;;8327607;28;20503;-42
2024/01/06 12:58:37;;;;;;;3.15;1.88;;;19.90;42.70;;;;;;8327800;28;20033;-42
2024/01/06 13:02:38;;;;;;;2.72;1.83;;;19.70;43.60;;;;;;8325993;28;20094;-42
2024/01/06 13:06:40;;;;;;;1.45;1.33;;;19.70;43.40;;;;;;8327400;28;20037;-41
2024/01/06 13:10:40;;;;;;;2.75;1.50;;;19.80;42.90;;;;;;8327348;28;20033;-41
2024/01/06 13:14:44;;;;;;;8.93;2.15;;;19.80;42.90;;;;;;8316699;28;20063;-40
2024/01/06 13:18:44;;;;;;;3.70;2.40;;;19.60;42.30;;;;;;8326646;28;20041;-43
2024/01/06 13:22:45;;;;;;;5.82;2.40;;;19.50;41.70;;;;;;8327137;28;20037;-42
2024/01/06 13:26:46;;;;;;;2.65;2.10;;;19.50;40.80;;;;;;8327619;28;20051;-42
2024/01/06 13:30:47;;;;;;;4.30;2.38;;;19.40;40.30;;;;;;8328019;28;20029;-43
2024/01/06 13:34:48;;;;;;;4.15;2.22;;;19.40;40.00;;;;;;8327238;28;20083;-43
2024/01/06 13:38:49;;;;;;;3.65;2.08;;;19.40;40.10;;;;;;8327828;28;20030;-43
2024/01/06 13:42:50;;;;;;;6.47;2.63;;;19.40;39.20;;;;;;8327198;28;20029;-43
2024/01/06 13:46:51;;;;;;;4.63;3.00;;;19.30;39.40;;;;;;8327193;28;20038;-43
2024/01/06 13:50:52;;;;;;;5.60;2.72;;;19.10;39.70;;;;;;8327481;28;20033;-42
2024/01/06 13:54:53;;;;;;;4.53;2.30;;;19.10;39.30;;;;;;8327703;28;20045;-42
2024/01/06 13:58:53;;;;;;;5.78;2.40;;;19.20;38.70;;;;;;8327153;28;20411;-44
2024/01/06 14:02:54;;;;;;;5.00;2.65;;;19.20;38.50;;;;;;8326515;28;20060;-41
2024/01/06 14:07:45;;;;;;;2.58;2.10;;;19.20;38.10;;;;;;8327091;28;20451;-41
2024/01/06 14:11:46;;;;;;;5.90;2.50;;;19.20;38.00;;;;;;8326554;28;20041;-43
2024/01/06 14:15:46;;;;;;;4.50;2.08;;;19.30;37.90;;;;;;8325627;28;20315;-42
2024/01/06 14:19:47;;;;;;;4.18;2.13;;;19.40;37.80;;;;;;8324427;28;20057;-42
2024/01/06 14:23:49;;;;;;;3.40;1.92;;;19.50;37.70;;;;;;8323555;28;20038;-42
2024/01/06 14:27:50;;;;;;;6.72;1.83;;;19.60;37.70;;;;;;8323389;28;21177;-41
2024/01/06 14:31:51;;;;;;;3.47;2.25;;;19.70;37.70;;;;;;8322653;28;20108;-42
2024/01/06 14:35:53;;;;;;;5.25;2.00;;;19.60;39.00;;;;;;8323818;28;20407;-41
2024/01/06 14:39:54;;;;;;;;;;;19.50;39.80;;;;;;8324886;28;20063;-42
2024/01/06 14:43:54;;;;;;;9.83;1.70;;;19.60;39.40;;;;;;8338732;28;19909;-44
2024/01/06 14:47:55;;;;;;;5.32;1.92;;;19.70;39.30;;;;;;8324777;28;20163;-42
2024/01/06 14:51:55;;;;;;;4.43;1.70;;;19.90;38.90;;;;;;8326414;28;20042;-42
2024/01/06 14:55:56;;;;;;;4.20;1.67;;;19.90;38.70;;;;;;8325808;28;20057;-42
2024/01/06 14:59:57;;;;;;;3.05;1.70;;;20.00;38.70;;;;;;8324709;28;20048;-44
2024/01/06 15:03:58;;;;;;;7.63;1.67;;;20.00;38.70;;;;;;8325368;28;20395;-42
2024/01/06 15:07:58;;;;;;;4.20;2.13;;;20.00;38.80;;;;;;8325308;28;20088;-45
2024/01/06 15:11:59;;;;;;;5.70;1.70;;;20.00;38.90;;;;;;8324902;28;20487;-45
2024/01/06 15:16:00;;;;;;;4.40;1.40;;;20.10;38.80;;;;;;8324066;28;20034;-43
2024/01/06 15:20:01;;;;;;;11.20;2.00;;;20.10;39.00;;;;;;8325170;28;20040;-43
2024/01/06 15:24:01;;;;;;;6.78;1.95;;;20.00;40.30;;;;;;8324613;28;20116;-42
2024/01/06 15:28:03;;;;;;;12.93;2.30;;;19.90;41.20;;;;;;8325249;28;20499;-43
2024/01/06 15:32:04;;;;;;;7.68;2.33;;;19.90;42.40;;;;;;8324844;28;20033;-42
2024/01/06 15:36:05;;;;;;;7.95;2.22;;;20.00;42.50;;;;;;8324982;28;20091;-42
2024/01/06 15:40:07;;;;;;;11.02;3.05;;;20.00;42.30;;;;;;8322961;28;20025;-44
2024/01/06 15:44:07;;;;;;;8.90;2.10;;;20.00;42.90;;;;;;8321448;28;20116;-47
2024/01/06 15:48:08;;;;;;;14.02;2.33;;;20.10;43.20;;;;;;8324673;28;20044;-46
2024/01/06 15:52:09;;;;;;;13.32;1.77;;;20.10;43.20;;;;;;8324496;28;20688;-44
2024/01/06 15:56:10;;;;;;;8.20;1.75;;;20.10;43.60;;;;;;8323720;28;20067;-46
2024/01/06 16:00:11;;;;;;;14.75;2.10;;;20.10;43.30;;;;;;8322607;28;20057;-44
2024/01/06 16:04:12;;;;;;;13.55;4.10;;;20.10;43.70;;;;;;8322910;28;20045;-43
2024/01/06 16:08:13;;;;;;;69.53;28.45;;;20.10;44.60;;;;;;8324278;28;20053;-48
2024/01/06 16:12:15;;;;;;;87.60;36.80;;;20.20;47.00;;;;;;8326368;28;20037;-45
2024/01/06 16:16:16;;;;;;;115.85;42.83;;;20.30;47.40;;;;;;8328975;28;20038;-45
2024/01/06 16:20:17;;;;;;;178.88;80.60;;;20.40;48.20;;;;;;8329246;28;20042;-45
2024/01/06 16:24:18;;;;;;;586.28;252.85;;;20.40;47.60;;;;;;8328796;28;20041;-51
2024/01/06 16:28:21;;;;;;;671.85;298.42;;;20.50;47.70;;;;;;8328126;28;20039;-45
2024/01/06 16:32:22;;;;;;;623.95;274.73;;;20.50;48.60;;;;;;8296467;28;20046;-47
2024/01/06 16:36:23;;;;;;;576.30;251.82;;;20.60;48.40;;;;;;8296339;28;20092;-45
2024/01/06 16:40:24;;;;;;;523.83;226.52;;;20.70;49.10;;;;;;8296402;28;20446;-45
2024/01/06 16:44:24;;;;;;;522.30;211.80;;;20.60;48.90;;;;;;8309097;28;20418;-49
2024/01/06 16:48:25;;;;;;;451.83;180.27;;;20.60;49.20;;;;;;8328631;28;20045;-47
2024/01/06 16:52:26;;;;;;;430.00;169.18;;;20.60;48.00;;;;;;8331131;28;20030;-45
2024/01/06 16:56:26;;;;;;;398.98;160.05;;;20.50;48.30;;;;;;8335505;28;20030;-45
2024/01/06 17:00:27;;;;;;;362.48;144.43;;;20.40;48.60;;;;;;8335185;28;20395;-44
2024/01/06 17:04:29;;;;;;;308.27;125.78;;;20.30;47.10;;;;;;8333906;28;20033;-45
2024/01/06 17:08:30;;;;;;;260.02;111.78;;;20.20;47.00;;;;;;8330336;28;20049;-53
2024/01/06 17:12:31;;;;;;;266.58;108.13;;;20.20;46.60;;;;;;8328381;28;20071;-46
2024/01/06 17:16:31;;;;;;;259.50;106.32;;;20.30;47.20;;;;;;8328691;28;20041;-56
2024/01/06 17:20:37;;;;;;;248.85;103.32;;;20.40;48.10;;;;;;8327741;28;20029;-57
2024/01/06 17:24:38;;;;;;;238.10;101.63;;;20.50;47.90;;;;;;8328468;28;20053;-57
2024/01/06 17:28:38;;;;;;;226.23;97.35;;;20.50;47.80;;;;;;8328124;28;20057;-57
2024/01/06 17:32:39;;;;;;;230.45;96.63;;;20.60;47.60;;;;;;8328205;28;20050;-56
2024/01/06 17:36:40;;;;;;;;;;;20.50;47.60;;;;;;8328800;28;20029;-56
2024/01/06 17:40:41;;;;;;;228.13;92.27;;;20.50;47.90;;;;;;8328227;28;19940;-54
2024/01/06 17:44:44;;;;;;;206.02;90.15;;;20.50;48.00;;;;;;8328295;28;20280;-51
2024/01/06 17:48:45;;;;;;;205.93;90.07;;;20.60;48.10;;;;;;8328129;28;20037;-54
2024/01/06 17:52:45;;;;;;;202.80;89.30;;;20.60;48.20;;;;;;8327754;28;20032;-55
2024/01/06 17:56:46;;;;;;;191.82;86.65;;;20.50;48.10;;;;;;8327633;28;20029;-58
2024/01/06 18:00:47;;;;;;;203.27;86.03;;;20.50;48.00;;;;;;8325046;28;20037;-54
2024/01/06 18:04:48;;;;;;;202.48;87.00;;;20.50;48.20;;;;;;8308465;28;20030;-52
2024/01/06 18:08:48;;;;;;;201.95;83.90;;;20.50;47.70;;;;;;8332547;28;20085;-48
2024/01/06 18:12:49;;;;;;;181.98;82.45;;;20.40;47.60;;;;;;8332890;28;20044;-49
2024/01/06 18:16:51;;;;;;;193.32;81.15;;;20.40;47.60;;;;;;8327833;28;20049;-52
2024/01/06 18:20:52;;;;;;;178.00;79.28;;;20.40;48.00;;;;;;8325851;28;20041;-48
2024/01/06 18:24:53;;;;;;;174.32;74.93;;;20.40;48.10;;;;;;8332763;28;20112;-46
2024/01/06 18:28:53;;;;;;;167.73;74.22;;;20.40;48.30;;;;;;8327107;28;20029;-46
2024/01/06 18:32:55;;;;;;;166.13;73.00;;;20.40;47.90;;;;;;8320534;28;20030;-45
2024/01/06 18:36:56;;;;;;;158.68;72.38;;;20.40;47.60;;;;;;8325974;28;20056;-45
2024/01/06 18:40:58;;;;;;;160.98;70.10;;;20.40;48.20;;;;;;8331647;28;20029;-47
2024/01/06 18:45:00;;;;;;;153.80;68.90;;;20.40;48.30;;;;;;8325776;28;20044;-45
2024/01/06 18:49:00;;;;;;;157.15;67.45;;;20.50;48.40;;;;;;8322920;28;20037;-45
2024/01/06 18:53:01;;;;;;;149.43;66.75;;;20.50;48.20;;;;;;8325123;28;20506;-47
2024/01/06 18:57:02;;;;;;;150.52;68.18;;;20.50;48.10;;;;;;8331629;28;20037;-50
2024/01/06 19:01:03;;;;;;;145.73;65.97;;;20.50;47.90;;;;;;8331609;28;20041;-45
2024/01/06 19:05:04;;;;;;;148.30;65.82;;;20.50;48.10;;;;;;8310455;28;20420;-49
2024/01/06 19:09:07;;;;;;;135.65;63.00;;;20.50;48.60;;;;;;8305335;28;20478;-48
2024/01/06 19:13:09;;;;;;;142.75;60.65;;;20.50;48.40;;;;;;8331004;28;20094;-53
2024/01/06 19:17:10;;;;;;;132.93;61.33;;;20.50;48.10;;;;;;8330305;28;20061;-52
2024/01/06 19:21:13;;;;;;;137.90;58.42;;;20.60;48.00;;;;;;8324369;28;20502;-50
2024/01/06 19:25:14;;;;;;;134.60;62.50;;;20.70;48.10;;;;;;8297518;28;20041;-47
2024/01/06 19:29:15;;;;;;;;;;;20.80;48.20;;;;;;8301172;28;20033;-51
2024/01/06 19:33:16;;;;;;;135.00;59.03;;;21.20;50.60;;;;;;8313704;28;19921;-53
2024/01/06 19:37:16;;;;;;;128.38;55.83;;;21.20;50.90;;;;;;8321026;28;20030;-49
2024/01/06 19:41:17;;;;;;;128.73;58.65;;;21.20;53.50;;;;;;8301599;28;20034;-50
2024/01/06 19:45:18;;;;;;;120.05;55.00;;;21.10;52.00;;;;;;8308951;28;20491;-50
2024/01/06 19:49:18;;;;;;;113.10;55.25;;;21.10;55.10;;;;;;8307074;28;20053;-48
2024/01/06 19:53:19;;;;;;;117.22;55.35;;;21.00;53.70;;;;;;8330047;28;20065;-50
2024/01/06 19:57:20;;;;;;;107.50;53.25;;;21.00;54.10;;;;;;8326675;28;20045;-46
2024/01/06 20:01:21;;;;;;;111.50;55.85;;;20.90;53.60;;;;;;8320450;28;20065;-50
2024/01/06 20:05:21;;;;;;;106.47;52.15;;;20.90;53.50;;;;;;8312128;28;20045;-50
2024/01/06 20:09:22;;;;;;;101.47;49.72;;;20.80;53.10;;;;;;8322038;28;20037;-50
2024/01/06 20:13:23;;;;;;;110.00;52.25;;;20.80;52.40;;;;;;8307347;28;20483;-52
2024/01/06 20:17:24;;;;;;;105.95;51.13;;;20.80;52.10;;;;;;8311937;28;20026;-48
2024/01/06 20:21:25;;;;;;;106.00;47.45;;;20.80;50.80;;;;;;8320861;28;20475;-45
2024/01/06 20:25:26;;;;;;;111.68;48.65;;;20.80;50.80;;;;;;8327500;28;20056;-45
2024/01/06 20:29:27;;;;;;;107.50;49.45;;;20.70;51.60;;;;;;8318124;28;20041;-46
2024/01/06 20:33:32;;;;;;;94.85;46.92;;;20.80;51.40;;;;;;8329835;28;20037;-45
2024/01/06 20:37:33;;;;;;;105.32;50.17;;;20.80;50.60;;;;;;8319614;28;20040;-48
2024/01/06 20:41:33;;;;;;;98.80;46.55;;;20.80;51.30;;;;;;8327840;28;20038;-45